Garcia Miguel — CUGT9 — position and weather

sailwx.info

Track history (hours):
 
Tides and Currents Weather Stations Pressure Air Temp Water Temp Dewpoint Dewpoint Depression Visibility Wind Speed Wind Dir Waves Ship Positions

Garcia Miguel

Last reported at 2016-Dec-07 17:18 UTC. Time now 2016-Dec-09 21:18 UTC.
Position N 38°05' W 009°18'.

Length 20 m.

Type: Fishing. MMSI: 263500286.

Date/timePositionNaut miles runAvg speedWind from/ knotsBaromVisibWave heightAir tempDewpointWater temp
2016-Dec-07 17:18N 38°05' W 009°18'10 1.0
2016-Dec-07 07:33N 38°14' W 009°15'2 0.7
2016-Dec-07 05:06N 38°16' W 009°15'2 0.7
2016-Dec-07 02:29N 38°16' W 009°13'1 0.5
2016-Dec-07 01:26N 38°15' W 009°13'0 0.4
2016-Dec-07 00:30N 38°15' W 009°12'5 5.1
2016-Dec-06 23:31N 38°10' W 009°13'7 6.3
2016-Dec-06 22:26N 38°04' W 009°13'12 0.4
2016-Dec-05 17:21N 38°16' W 009°16'7 6.7
2016-Dec-05 16:18N 38°22' W 009°21'5 6.5
2016-Dec-05 15:34N 38°26' W 009°24'6 6.3
2016-Dec-05 14:34N 38°32' W 009°27'7 6.6
2016-Dec-05 13:33N 38°38' W 009°31'7 6.6
2016-Dec-05 12:33N 38°44' W 009°33'6 6.4
2016-Dec-05 11:33N 38°50' W 009°33'7 6.6
2016-Dec-05 10:34N 38°57' W 009°31'7 6.7
2016-Dec-05 09:33N 39°03' W 009°29'7 6.8
2016-Dec-05 08:32N 39°10' W 009°27'  
Track history (hours):
 
Tides and Currents Weather Stations Pressure Air Temp Water Temp Dewpoint Dewpoint Depression Visibility Wind Speed Wind Dir Waves Ship Positions

Garcia Miguel

Last reported at 2016-Dec-07 17:18 UTC. Time now 2016-Dec-09 21:18 UTC.
Position N 38°05' W 009°18'.

Length 20 m.

Type: Fishing. MMSI: 263500286.

Date/timePositionNaut miles runAvg speedWind from/ knotsBaromVisibWave heightAir tempDewpointWater temp
2016-Dec-07 17:18N 38°05' W 009°18'10 1.0
2016-Dec-07 07:33N 38°14' W 009°15'2 0.7
2016-Dec-07 05:06N 38°16' W 009°15'2 0.7
2016-Dec-07 02:29N 38°16' W 009°13'1 0.5
2016-Dec-07 01:26N 38°15' W 009°13'0 0.4
2016-Dec-07 00:30N 38°15' W 009°12'5 5.1
2016-Dec-06 23:31N 38°10' W 009°13'7 6.3
2016-Dec-06 22:26N 38°04' W 009°13'12 0.4
2016-Dec-05 17:21N 38°16' W 009°16'7 6.7
2016-Dec-05 16:18N 38°22' W 009°21'5 6.5
2016-Dec-05 15:34N 38°26' W 009°24'6 6.3
2016-Dec-05 14:34N 38°32' W 009°27'7 6.6
2016-Dec-05 13:33N 38°38' W 009°31'7 6.6
2016-Dec-05 12:33N 38°44' W 009°33'6 6.4
2016-Dec-05 11:33N 38°50' W 009°33'7 6.6
2016-Dec-05 10:34N 38°57' W 009°31'7 6.7
2016-Dec-05 09:33N 39°03' W 009°29'7 6.8
2016-Dec-05 08:32N 39°10' W 009°27'  

Dump ship's entire track history